createdAt,value
2018-06-19T00:01:44.217Z,148815.89
2018-06-19T00:04:15.224Z,148795.97
2018-06-19T00:06:46.385Z,148753.58
2018-06-19T00:09:17.493Z,148731.17
2018-06-19T00:11:48.759Z,148694.97
2018-06-19T00:14:19.729Z,148704.92
2018-06-19T00:16:50.990Z,148703.69
2018-06-19T00:19:22.252Z,148687.50
2018-06-19T00:21:56.246Z,148627.66
2018-06-19T00:24:27.598Z,148617.69
2018-06-19T00:26:58.923Z,148616.45
2018-06-19T00:29:30.153Z,148612.72
2018-06-19T00:32:01.237Z,148618.94
2018-06-19T00:34:32.145Z,148618.94
2018-06-19T00:37:03.100Z,148627.66
2018-06-19T00:39:33.986Z,148620.19
2018-06-19T00:42:05.041Z,148625.17
2018-06-19T00:44:36.040Z,148632.69
2018-06-19T00:47:07.076Z,148622.67
2018-06-19T00:49:38.064Z,148630.14
2018-06-19T00:52:08.996Z,148623.92
2018-06-19T00:54:40.012Z,148626.41
2018-06-19T00:57:10.883Z,148636.42
2018-06-19T00:59:41.991Z,148628.91
2018-06-19T01:02:13.027Z,148647.63
2018-06-19T01:04:43.962Z,148643.89
2018-06-19T01:07:15.197Z,148621.44
2018-06-19T01:09:47.251Z,148660.06
2018-06-19T01:12:18.376Z,148677.50
2018-06-19T01:14:49.526Z,148670.03
2018-06-19T01:17:20.652Z,148678.78
2018-06-19T01:19:52.077Z,148682.53
2018-06-19T01:22:23.210Z,148698.70
2018-06-19T01:24:54.361Z,148694.97
2018-06-19T01:27:25.640Z,148689.98
2018-06-19T01:29:56.547Z,148693.72
2018-06-19T01:32:27.929Z,148681.28
2018-06-19T01:34:58.904Z,148689.98
2018-06-19T01:37:30.154Z,148688.75
2018-06-19T01:40:01.030Z,148702.44
2018-06-19T01:42:31.961Z,148708.66
2018-06-19T01:45:03.037Z,148681.28
2018-06-19T01:47:33.924Z,148694.97
2018-06-19T01:50:04.882Z,148687.50
2018-06-19T01:52:36.116Z,148658.83
2018-06-19T01:55:07.146Z,148652.59
2018-06-19T01:57:38.693Z,148647.63
2018-06-19T02:00:09.783Z,148635.17
2018-06-19T02:02:40.852Z,148637.66
2018-06-19T02:05:11.967Z,148618.94
2018-06-19T02:07:42.918Z,148616.45
2018-06-19T02:10:13.848Z,148620.19
2018-06-19T02:12:44.944Z,148606.50
2018-06-19T02:15:16.045Z,148597.78
2018-06-19T02:17:47.125Z,148577.83
2018-06-19T02:20:18.127Z,148555.42
2018-06-19T02:22:49.072Z,148526.75
2018-06-19T02:25:19.883Z,148551.69
2018-06-19T02:27:50.856Z,148538.00
2018-06-19T02:30:22.111Z,148544.22
2018-06-19T02:32:53.244Z,148531.73
2018-06-19T02:35:24.269Z,148519.30
2018-06-19T02:37:55.216Z,148514.31
2018-06-19T02:40:26.384Z,148518.05
2018-06-19T02:42:57.400Z,148524.27
2018-06-19T02:45:28.361Z,148524.27
2018-06-19T02:47:59.409Z,148523.03
2018-06-19T02:50:30.231Z,148528.00
2018-06-19T02:53:01.357Z,148550.45
2018-06-19T02:55:32.419Z,148582.81
2018-06-19T02:58:03.359Z,148621.44
2018-06-19T03:00:34.496Z,148675.00
2018-06-19T03:03:05.506Z,148739.88
2018-06-19T03:05:36.483Z,148782.27
2018-06-19T03:08:07.723Z,148842.09
2018-06-19T03:10:38.858Z,148899.44
2018-06-19T03:13:09.971Z,148951.84
2018-06-19T03:15:40.790Z,149030.44
2018-06-19T03:18:11.877Z,149159.00
2018-06-19T03:20:42.719Z,149134.02
2018-06-19T03:23:13.615Z,149092.80
2018-06-19T03:25:45.348Z,149044.14
2018-06-19T03:28:16.373Z,149025.45
2018-06-19T03:30:47.474Z,148981.80
2018-06-19T03:33:18.464Z,148965.59
2018-06-19T03:35:49.686Z,149009.25
2018-06-19T03:38:20.689Z,149084.06
2018-06-19T03:40:52.038Z,149119.06
2018-06-19T03:43:23.262Z,149195.16
2018-06-19T03:45:54.369Z,149301.28
2018-06-19T03:48:25.792Z,149439.91
2018-06-19T03:50:56.876Z,149556.09
2018-06-19T03:53:28.008Z,149583.59
2018-06-19T03:55:58.958Z,149679.84
2018-06-19T03:58:30.137Z,149899.84
2018-06-19T04:01:01.377Z,150044.95
2018-06-19T04:03:34.023Z,150106.28
2018-06-19T04:06:05.177Z,150232.66
2018-06-19T04:08:36.487Z,150143.78
2018-06-19T04:11:07.223Z,150061.25
2018-06-19T04:13:38.490Z,150210.16
2018-06-19T04:16:09.698Z,150374.14
2018-06-19T04:18:40.655Z,150504.42
2018-06-19T04:21:11.591Z,150607.11
2018-06-19T04:23:42.622Z,150727.44
2018-06-19T04:26:13.736Z,150732.45
2018-06-19T04:28:44.826Z,150795.14
2018-06-19T04:31:15.665Z,150742.47
2018-06-19T04:33:46.893Z,150749.97
2018-06-19T04:36:18.430Z,150510.67
2018-06-19T04:38:49.546Z,150257.72
2018-06-19T04:41:20.544Z,150006.17
2018-06-19T04:43:51.880Z,150131.28
2018-06-19T04:46:23.932Z,150143.78
2018-06-19T04:48:55.035Z,150201.41
2018-06-19T04:51:26.303Z,150270.22
2018-06-19T04:53:57.186Z,150218.91
2018-06-19T04:56:28.469Z,150233.91
2018-06-19T04:58:59.837Z,150404.20
2018-06-19T05:01:30.791Z,150565.77
2018-06-19T05:04:01.855Z,150731.20
2018-06-19T05:06:33.108Z,150832.75
2018-06-19T05:09:04.357Z,150842.75
2018-06-19T05:11:35.492Z,151034.61
2018-06-19T05:14:06.801Z,151295.63
2018-06-19T05:16:37.924Z,151417.38
2018-06-19T05:19:08.947Z,151398.56
2018-06-19T05:21:40.162Z,151256.72
2018-06-19T05:24:12.183Z,151275.52
2018-06-19T05:26:43.174Z,151131.22
2018-06-19T05:29:14.233Z,151274.27
2018-06-19T05:31:45.202Z,150934.27
2018-06-19T05:34:16.373Z,150827.73
2018-06-19T05:36:47.682Z,150699.86
2018-06-19T05:39:18.781Z,150855.28
2018-06-19T05:41:49.962Z,150905.41
2018-06-19T05:44:21.135Z,150897.91
2018-06-19T05:46:52.144Z,151102.41
2018-06-19T05:49:23.196Z,151234.11
2018-06-19T05:51:54.523Z,151357.09
2018-06-19T05:54:25.545Z,151578.12
2018-06-19T05:56:56.517Z,151814.31
2018-06-19T05:59:27.611Z,151929.94
2018-06-19T06:01:58.595Z,152012.87
2018-06-19T06:04:30.202Z,151816.83
2018-06-19T06:07:01.380Z,151939.97
2018-06-19T06:09:32.507Z,151853.22
2018-06-19T06:12:03.815Z,151862.06
2018-06-19T06:14:35.123Z,151497.70
2018-06-19T06:17:06.336Z,151579.37
2018-06-19T06:19:37.133Z,151676.11
2018-06-19T06:22:08.138Z,151446.25
2018-06-19T06:24:39.365Z,151564.28
2018-06-19T06:27:10.492Z,151600.69
2018-06-19T06:29:41.675Z,151605.72
2018-06-19T06:32:12.936Z,151576.86
2018-06-19T06:34:44.150Z,151579.37
2018-06-19T06:37:15.466Z,151732.61
2018-06-19T06:39:46.616Z,151953.78
2018-06-19T06:42:17.834Z,152010.38
2018-06-19T06:44:49.331Z,151748.92
2018-06-19T06:47:20.504Z,151630.84
2018-06-19T06:49:51.861Z,151892.19
2018-06-19T06:52:22.640Z,151926.16
2018-06-19T06:54:53.986Z,152070.73
2018-06-19T06:57:25.095Z,152113.48
2018-06-19T06:59:56.351Z,151976.44
2018-06-19T07:02:27.449Z,152100.92
2018-06-19T07:04:58.432Z,152080.78
2018-06-19T07:07:29.698Z,151973.91
2018-06-19T07:10:00.925Z,152107.20
2018-06-19T07:12:32.194Z,152669.69
2018-06-19T07:15:03.340Z,152652.03
2018-06-19T07:17:34.908Z,152188.94
2018-06-19T07:20:06.234Z,151740.14
2018-06-19T07:22:38.225Z,151771.61
2018-06-19T07:25:10.037Z,151774.12
2018-06-19T07:27:41.189Z,151761.47
2018-06-19T07:30:12.088Z,151907.34
2018-06-19T07:32:42.929Z,151958.84
2018-06-19T07:35:14.278Z,152376.34
2018-06-19T07:37:45.906Z,152209.06
2018-06-19T07:40:16.918Z,152022.92
2018-06-19T07:42:48.222Z,152044.31
2018-06-19T07:45:19.400Z,151953.78
2018-06-19T07:47:50.222Z,151781.64
2018-06-19T07:50:22.229Z,151422.38
2018-06-19T07:52:53.421Z,151364.61
2018-06-19T07:55:24.431Z,151652.22
2018-06-19T07:57:55.576Z,151849.45
2018-06-19T08:01:55.795Z,151902.27
2018-06-19T08:04:27.707Z,151808.00
2018-06-19T08:06:58.816Z,151662.25
2018-06-19T08:09:29.862Z,151603.20
2018-06-19T08:12:00.917Z,151511.56
2018-06-19T08:14:32.204Z,151259.22
2018-06-19T08:17:04.401Z,151141.23
2018-06-19T08:19:35.284Z,150914.22
2018-06-19T08:22:06.386Z,150907.97
2018-06-19T08:24:37.963Z,150805.16
2018-06-19T08:27:09.087Z,150763.80
2018-06-19T08:29:40.214Z,150782.56
2018-06-19T08:32:11.321Z,150766.30
2018-06-19T08:34:42.662Z,150778.81
2018-06-19T08:37:13.645Z,150782.56
2018-06-19T08:39:45.763Z,150746.22
2018-06-19T08:42:16.995Z,150744.97
2018-06-19T08:44:48.119Z,150708.63
2018-06-19T08:47:19.167Z,150716.13
2018-06-19T08:49:50.173Z,150763.80
2018-06-19T08:52:21.225Z,150723.69
2018-06-19T08:54:52.496Z,150714.87
2018-06-19T08:57:23.414Z,150781.31
2018-06-19T08:59:54.415Z,150805.16
2018-06-19T09:02:25.399Z,150767.55
2018-06-19T09:04:56.747Z,150787.58
2018-06-19T09:07:28.219Z,150709.88
2018-06-19T09:09:59.230Z,150709.88
2018-06-19T09:12:30.505Z,150767.55
2018-06-19T09:15:01.584Z,150800.14
2018-06-19T09:17:32.895Z,150827.73
2018-06-19T09:20:04.104Z,150797.64
2018-06-19T09:22:35.378Z,150842.75
2018-06-19T09:25:06.746Z,150855.28
2018-06-19T09:27:37.940Z,150797.64
2018-06-19T09:30:09.082Z,150796.39
2018-06-19T09:32:40.191Z,150821.47
2018-06-19T09:35:11.262Z,150818.97
2018-06-19T09:37:42.212Z,150849.02
2018-06-19T09:40:13.219Z,150823.98
2018-06-19T09:42:44.148Z,150816.47
2018-06-19T09:45:15.146Z,150910.47
2018-06-19T09:47:46.537Z,151010.81
2018-06-19T09:50:17.685Z,150975.69
2018-06-19T09:52:49.202Z,150988.22
2018-06-19T09:55:20.548Z,150993.22
2018-06-19T09:57:51.897Z,150970.67
2018-06-19T10:00:27.686Z,150885.37
2018-06-19T10:02:59.751Z,150945.59
2018-06-19T10:05:32.310Z,150910.47
2018-06-19T10:08:03.731Z,150806.41
2018-06-19T10:10:34.711Z,150738.72
2018-06-19T10:13:05.920Z,150782.56
2018-06-19T10:15:37.040Z,150773.81
2018-06-19T10:18:08.407Z,150732.45
2018-06-19T10:20:39.387Z,150721.19
2018-06-19T10:23:10.563Z,150771.31
2018-06-19T10:25:41.377Z,150795.14
2018-06-19T10:28:12.379Z,150802.66
2018-06-19T10:30:43.674Z,150822.72
2018-06-19T10:33:15.107Z,150795.14
2018-06-19T10:35:46.372Z,150831.50
2018-06-19T10:38:17.358Z,150921.75
2018-06-19T10:40:48.545Z,150892.89
2018-06-19T10:43:19.510Z,150706.12
2018-06-19T10:45:50.722Z,150542.00
2018-06-19T10:48:22.128Z,150521.94
2018-06-19T10:50:53.201Z,150513.17
2018-06-19T10:53:24.340Z,150523.19
2018-06-19T10:55:55.373Z,150553.25
2018-06-19T10:58:26.225Z,150627.17
2018-06-19T11:00:57.174Z,150706.12
2018-06-19T11:03:27.947Z,150666.02
2018-06-19T11:05:59.156Z,150504.42
2018-06-19T11:08:30.482Z,150415.47
2018-06-19T11:11:01.359Z,150431.78
2018-06-19T11:13:32.639Z,150304.03
2018-06-19T11:16:03.621Z,150380.39
2018-06-19T11:18:34.503Z,150362.89
2018-06-19T11:21:05.603Z,150375.39
2018-06-19T11:23:36.454Z,150419.22
2018-06-19T11:26:07.449Z,150429.22
2018-06-19T11:28:38.651Z,150490.61
2018-06-19T11:31:10.718Z,150450.53
2018-06-19T11:33:41.897Z,150486.86
2018-06-19T11:36:13.168Z,150474.30
2018-06-19T11:38:44.231Z,150448.03
2018-06-19T11:41:15.325Z,150535.75
2018-06-19T11:43:46.768Z,150565.77
2018-06-19T11:46:17.508Z,150562.02
2018-06-19T11:48:48.495Z,150518.19
2018-06-19T11:51:19.804Z,150570.78
2018-06-19T11:53:52.228Z,150547.00
2018-06-19T11:56:23.431Z,150629.69
2018-06-19T11:58:54.506Z,150637.19
2018-06-19T12:01:25.508Z,150587.09
2018-06-19T12:03:56.481Z,150547.00
2018-06-19T12:06:27.398Z,150510.67
2018-06-19T12:08:58.457Z,150481.86
2018-06-19T12:11:29.480Z,150449.28
2018-06-19T12:14:00.747Z,150446.78
2018-06-19T12:16:32.014Z,150466.80
2018-06-19T12:19:03.137Z,150537.00
2018-06-19T12:21:34.372Z,150486.86
2018-06-19T12:24:05.458Z,150490.61
2018-06-19T12:26:36.508Z,150521.94
2018-06-19T12:29:07.583Z,150547.00
2018-06-19T12:31:38.485Z,150559.52
2018-06-19T12:34:09.525Z,150577.08
2018-06-19T12:36:40.492Z,150474.30
2018-06-19T12:39:12.791Z,150456.78
2018-06-19T12:41:45.122Z,150411.72
2018-06-19T12:44:16.150Z,150407.95
2018-06-19T12:46:47.131Z,150359.14
2018-06-19T12:49:26.615Z,150419.22
2018-06-19T12:52:08.271Z,150451.78
2018-06-19T12:54:49.643Z,150505.67
2018-06-19T12:57:20.394Z,150538.25
2018-06-19T12:59:51.479Z,150508.17
2018-06-19T13:02:22.456Z,150549.50
2018-06-19T13:05:04.104Z,150543.25
2018-06-19T13:07:35.513Z,150511.92
2018-06-19T13:10:06.707Z,150528.23
2018-06-19T13:12:48.197Z,150481.86
2018-06-19T13:15:19.211Z,150486.86
2018-06-19T13:18:00.683Z,150422.97
2018-06-19T13:20:51.148Z,150394.20
2018-06-19T13:23:21.972Z,150379.16
2018-06-19T13:25:53.434Z,150433.03
2018-06-19T13:28:35.973Z,150364.14
2018-06-19T13:31:17.867Z,150346.64
2018-06-19T13:33:48.912Z,150337.88
2018-06-19T13:36:19.988Z,150322.78
2018-06-19T13:38:51.180Z,150337.88
2018-06-19T13:43:37.886Z,150301.53
2018-06-19T13:46:09.079Z,150291.53
2018-06-19T13:48:41.994Z,150326.53
2018-06-19T13:51:15.090Z,150299.03
2018-06-19T13:53:46.521Z,150304.03
2018-06-19T13:57:29.256Z,150292.78
2018-06-19T14:00:01.715Z,150331.53
2018-06-19T14:02:32.743Z,150379.16
2018-06-19T14:05:04.469Z,150411.72
2018-06-19T14:07:40.437Z,150401.70
2018-06-19T14:10:22.498Z,150396.70
2018-06-19T14:13:00.875Z,150431.78
2018-06-19T14:15:39.317Z,150426.72
2018-06-19T14:18:10.793Z,150427.97
2018-06-19T14:20:42.668Z,150465.55
2018-06-19T14:23:14.007Z,150411.72
2018-06-19T14:25:45.297Z,150351.64
2018-06-19T14:28:16.480Z,150349.13
2018-06-19T14:30:47.458Z,150370.39
2018-06-19T14:33:19.090Z,150394.20
2018-06-19T14:35:50.287Z,150379.16
2018-06-19T14:38:21.557Z,150371.64
2018-06-19T14:40:52.758Z,150364.14
2018-06-19T14:43:23.739Z,150374.14
2018-06-19T14:45:54.768Z,150370.39
2018-06-19T14:48:25.688Z,150374.14
2018-06-19T14:50:56.907Z,150417.97
2018-06-19T14:53:28.358Z,150446.78
2018-06-19T14:55:59.794Z,150461.78
2018-06-19T14:58:30.860Z,150456.78
2018-06-19T15:01:03.041Z,150392.95
2018-06-19T15:03:34.263Z,150374.14
2018-06-19T15:06:05.568Z,150376.66
2018-06-19T15:08:36.561Z,150384.20
2018-06-19T15:11:07.497Z,150387.95
2018-06-19T15:13:38.519Z,150382.91
2018-06-19T15:16:09.529Z,150392.95
2018-06-19T15:18:40.402Z,150359.14
2018-06-19T15:21:11.777Z,150381.66
2018-06-19T15:23:42.266Z,150355.39
2018-06-19T15:26:13.024Z,150392.95
2018-06-19T15:28:43.733Z,150399.20
2018-06-19T15:31:14.244Z,150396.70
2018-06-19T15:33:44.936Z,150374.14
2018-06-19T15:36:15.603Z,150352.89
2018-06-19T15:38:46.647Z,150337.88
2018-06-19T15:41:17.772Z,150339.13
2018-06-19T15:43:48.907Z,150342.88
2018-06-19T15:46:19.988Z,150335.28
2018-06-19T15:48:50.985Z,150342.88
2018-06-19T15:51:22.343Z,150347.89
2018-06-19T15:53:53.325Z,150329.03
2018-06-19T15:56:24.588Z,150322.78
2018-06-19T15:58:55.688Z,150294.02
2018-06-19T16:01:26.861Z,150272.72
2018-06-19T16:03:57.820Z,150263.97
2018-06-19T16:06:28.895Z,150270.22
2018-06-19T16:09:00.386Z,150251.47
2018-06-19T16:11:31.835Z,150256.47
2018-06-19T16:14:03.041Z,150243.97
2018-06-19T16:16:34.497Z,150217.66
2018-06-19T16:19:05.685Z,150216.41
2018-06-19T16:21:37.427Z,150213.91
2018-06-19T16:24:08.628Z,150213.91
2018-06-19T16:26:40.593Z,150193.91
2018-06-19T16:29:12.019Z,150168.81
2018-06-19T16:31:43.353Z,150178.88
2018-06-19T16:34:14.981Z,150165.06
2018-06-19T16:36:46.285Z,150148.81
2018-06-19T16:39:17.450Z,150140.02
2018-06-19T16:41:48.242Z,150128.78
2018-06-19T16:44:19.348Z,150121.28
2018-06-19T16:46:50.520Z,150116.28
2018-06-19T16:49:21.313Z,150105.03
2018-06-19T16:51:52.379Z,150081.25
2018-06-19T16:54:23.313Z,150066.25
2018-06-19T16:56:54.495Z,150017.47
2018-06-19T16:59:25.710Z,150026.22
2018-06-19T17:01:57.177Z,150033.70
2018-06-19T17:04:28.413Z,149999.88
2018-06-19T17:06:59.407Z,149988.64
2018-06-19T17:09:30.388Z,149977.39
2018-06-19T17:12:01.694Z,149953.61
2018-06-19T17:14:33.310Z,149912.39
2018-06-19T17:17:04.179Z,149907.34
2018-06-19T17:19:35.094Z,149886.11
2018-06-19T17:22:06.441Z,149888.61
2018-06-19T17:24:37.185Z,149861.08
2018-06-19T17:27:08.152Z,149838.55
2018-06-19T17:29:38.966Z,149799.78
2018-06-19T17:32:09.938Z,149784.81
2018-06-19T17:34:41.141Z,149766.03
2018-06-19T17:37:12.901Z,149786.06
2018-06-19T17:39:43.882Z,149773.58
2018-06-19T17:42:15.064Z,149741.06
2018-06-19T17:44:46.131Z,149746.06
2018-06-19T17:47:17.112Z,149693.58
2018-06-19T17:49:48.192Z,149631.06
2018-06-19T17:52:19.421Z,149603.56
2018-06-19T17:54:50.423Z,149576.06
2018-06-19T17:57:21.590Z,149563.58
2018-06-19T17:59:52.882Z,149561.08
2018-06-19T18:02:24.015Z,149547.34
2018-06-19T18:04:55.014Z,149538.63
2018-06-19T18:07:25.733Z,149514.86
2018-06-19T18:09:57.166Z,149528.59
2018-06-19T18:12:28.251Z,149527.34
2018-06-19T18:14:59.243Z,149501.14
2018-06-19T18:17:30.610Z,149503.64
2018-06-19T18:20:01.409Z,149501.14
2018-06-19T18:22:32.434Z,149491.11
2018-06-19T18:25:03.389Z,149488.61
2018-06-19T18:27:34.433Z,149479.83
2018-06-19T18:30:05.474Z,149481.08
2018-06-19T18:32:36.533Z,149493.66
2018-06-19T18:35:07.548Z,149471.09
2018-06-19T18:37:38.556Z,149466.11
2018-06-19T18:40:09.534Z,149466.11
2018-06-19T18:42:40.366Z,149439.91
2018-06-19T18:45:12.786Z,149339.98
2018-06-19T18:47:43.947Z,149453.63
2018-06-19T18:50:15.183Z,149469.84
2018-06-19T18:52:46.427Z,149453.63
2018-06-19T18:55:17.327Z,149463.61
2018-06-19T18:57:49.421Z,149453.63
2018-06-19T19:00:20.987Z,149463.61
2018-06-19T19:02:52.117Z,149472.34
2018-06-19T19:05:23.961Z,149482.37
2018-06-19T19:07:56.184Z,149471.09
2018-06-19T19:10:32.217Z,149486.12
2018-06-19T19:13:04.441Z,149481.08
2018-06-19T19:15:40.265Z,149471.09
2018-06-19T19:18:25.912Z,149491.11
2018-06-19T19:20:57.941Z,149491.11
2018-06-19T19:23:29.540Z,149478.58
2018-06-19T19:26:00.657Z,149481.08
2018-06-19T19:28:36.673Z,149476.09
2018-06-19T19:31:07.762Z,149473.59
2018-06-19T19:33:39.443Z,149487.36
2018-06-19T19:36:14.796Z,149483.63
2018-06-19T19:38:50.535Z,149478.58
2018-06-19T19:41:21.889Z,149474.84
2018-06-19T19:43:52.970Z,149463.61
2018-06-19T19:46:28.848Z,149463.61
2018-06-19T19:49:00.222Z,149417.41
2018-06-19T19:51:31.916Z,149403.69
2018-06-19T19:54:03.156Z,149404.94
2018-06-19T19:56:39.232Z,149416.16
2018-06-19T19:59:10.631Z,149417.41
2018-06-19T20:01:41.815Z,149431.13
2018-06-19T20:04:12.953Z,149444.91
2018-06-19T20:06:43.991Z,149447.39
2018-06-19T20:09:15.000Z,149461.13
2018-06-19T20:11:45.983Z,149483.63
2018-06-19T20:14:16.975Z,149483.63
2018-06-19T20:16:47.874Z,149496.16
2018-06-19T20:19:18.736Z,149494.91
2018-06-19T20:21:49.986Z,149501.14
2018-06-19T20:24:21.185Z,149501.14
2018-06-19T20:26:51.984Z,149496.16
2018-06-19T20:29:22.834Z,149499.89
2018-06-19T20:31:53.802Z,149492.41
2018-06-19T20:34:24.593Z,149501.14
2018-06-19T20:36:55.574Z,149502.39
2018-06-19T20:39:26.649Z,149506.13
2018-06-19T20:41:57.639Z,149499.89
2018-06-19T20:44:28.945Z,149492.41
2018-06-19T20:46:59.882Z,149489.86
2018-06-19T20:49:31.507Z,149462.36
2018-06-19T20:52:02.555Z,149433.63
2018-06-19T20:54:33.628Z,149412.42
2018-06-19T20:57:04.742Z,149383.69
2018-06-19T20:59:36.033Z,149362.47
2018-06-19T21:02:07.084Z,149342.53
2018-06-19T21:04:38.378Z,149326.27
2018-06-19T21:07:09.406Z,149356.25
2018-06-19T21:09:40.676Z,149346.27
2018-06-19T21:12:11.688Z,149378.69
2018-06-19T21:14:42.840Z,149377.44
2018-06-19T21:17:13.907Z,149366.22
2018-06-19T21:19:44.792Z,149366.22
2018-06-19T21:22:15.588Z,149311.30
2018-06-19T21:24:46.638Z,149317.53
2018-06-19T21:27:17.633Z,149336.23
2018-06-19T21:29:48.425Z,149335.00
2018-06-19T21:32:19.300Z,149346.27
2018-06-19T21:34:51.085Z,149353.75
2018-06-19T21:37:22.042Z,149336.23
2018-06-19T21:39:53.089Z,149356.25
2018-06-19T21:42:23.781Z,149367.47
2018-06-19T21:44:54.805Z,149381.19
2018-06-19T21:47:26.074Z,149391.22
2018-06-19T21:49:57.154Z,149383.69
2018-06-19T21:52:28.278Z,149394.95
2018-06-19T21:54:59.238Z,149389.97
2018-06-19T21:57:30.246Z,149364.97
2018-06-19T22:00:01.442Z,149368.72
2018-06-19T22:02:32.243Z,149338.73
2018-06-19T22:05:05.129Z,149339.98
2018-06-19T22:07:35.912Z,149337.48
2018-06-19T22:10:06.837Z,149302.52
2018-06-19T22:12:37.894Z,149301.28
2018-06-19T22:15:09.061Z,149308.80
2018-06-19T22:17:40.055Z,149307.50
2018-06-19T22:20:11.240Z,149293.80
2018-06-19T22:22:42.321Z,149297.53
2018-06-19T22:25:13.138Z,149261.33
2018-06-19T22:27:44.116Z,149236.34
2018-06-19T22:30:15.050Z,149246.36
2018-06-19T22:32:46.006Z,149255.09
2018-06-19T22:35:16.928Z,149242.58
2018-06-19T22:37:47.738Z,149261.33
2018-06-19T22:40:18.882Z,149268.81
2018-06-19T22:42:49.738Z,149253.84
2018-06-19T22:45:20.665Z,149236.34
2018-06-19T22:47:51.643Z,149210.16
2018-06-19T22:50:22.602Z,149176.45
2018-06-19T22:52:53.563Z,149173.95
2018-06-19T22:55:24.488Z,149167.72
2018-06-19T22:57:55.400Z,149139.00
2018-06-19T23:00:28.104Z,149136.52
2018-06-19T23:03:05.760Z,149110.30
2018-06-19T23:05:37.716Z,149086.56
2018-06-19T23:08:09.147Z,149095.28
2018-06-19T23:10:40.131Z,149094.03
2018-06-19T23:13:11.180Z,149059.16
2018-06-19T23:15:42.223Z,149025.45
2018-06-19T23:18:13.412Z,149027.94
2018-06-19T23:20:44.616Z,149045.39
2018-06-19T23:23:15.779Z,149029.19
2018-06-19T23:25:47.766Z,149031.69
2018-06-19T23:28:18.958Z,149022.97
2018-06-19T23:30:50.331Z,149026.69
2018-06-19T23:33:21.719Z,149031.69
2018-06-19T23:35:53.033Z,149016.73
2018-06-19T23:38:24.174Z,149037.91
2018-06-19T23:40:55.298Z,149049.12
2018-06-19T23:43:26.645Z,149071.61
2018-06-19T23:45:57.668Z,149076.59
2018-06-19T23:48:28.631Z,149084.06
2018-06-19T23:50:59.804Z,149097.78
2018-06-19T23:53:31.633Z,149084.06
2018-06-19T23:56:02.739Z,149099.03
2018-06-19T23:58:33.465Z,149125.30
